sensor_id;sensor_type;location;lat;lon;timestamp;P1;durP1;ratioP1;P2;durP2;ratioP2
76053;SDS011;64752;48.870;9.082;2023-06-22T00:01:06;13.60;;;8.50;;
76053;SDS011;64752;48.870;9.082;2023-06-22T00:03:31;12.43;;;9.53;;
76053;SDS011;64752;48.870;9.082;2023-06-22T00:05:56;12.97;;;10.33;;
76053;SDS011;64752;48.870;9.082;2023-06-22T00:08:22;14.57;;;9.50;;
76053;SDS011;64752;48.870;9.082;2023-06-22T00:10:47;11.80;;;9.30;;
76053;SDS011;64752;48.870;9.082;2023-06-22T00:13:13;12.17;;;9.67;;
76053;SDS011;64752;48.870;9.082;2023-06-22T00:15:39;15.40;;;9.40;;
76053;SDS011;64752;48.870;9.082;2023-06-22T00:18:06;14.90;;;10.68;;
76053;SDS011;64752;48.870;9.082;2023-06-22T00:20:33;14.68;;;10.70;;
76053;SDS011;64752;48.870;9.082;2023-06-22T00:23:01;13.80;;;10.40;;
76053;SDS011;64752;48.870;9.082;2023-06-22T00:25:33;13.02;;;10.90;;
76053;SDS011;64752;48.870;9.082;2023-06-22T00:28:02;16.08;;;10.88;;
76053;SDS011;64752;48.870;9.082;2023-06-22T00:30:28;13.45;;;11.00;;
76053;SDS011;64752;48.870;9.082;2023-06-22T00:32:55;15.63;;;12.32;;
76053;SDS011;64752;48.870;9.082;2023-06-22T00:35:20;13.93;;;11.77;;
76053;SDS011;64752;48.870;9.082;2023-06-22T00:37:46;16.03;;;10.87;;
76053;SDS011;64752;48.870;9.082;2023-06-22T00:40:11;20.07;;;11.57;;
76053;SDS011;64752;48.870;9.082;2023-06-22T00:42:40;16.83;;;12.63;;
76053;SDS011;64752;48.870;9.082;2023-06-22T00:45:06;14.70;;;12.13;;
76053;SDS011;64752;48.870;9.082;2023-06-22T00:47:32;19.03;;;11.33;;
76053;SDS011;64752;48.870;9.082;2023-06-22T00:49:59;15.20;;;10.93;;
76053;SDS011;64752;48.870;9.082;2023-06-22T00:52:25;12.80;;;11.00;;
76053;SDS011;64752;48.870;9.082;2023-06-22T00:54:54;14.18;;;10.95;;
76053;SDS011;64752;48.870;9.082;2023-06-22T00:57:26;13.38;;;11.05;;
76053;SDS011;64752;48.870;9.082;2023-06-22T00:59:53;15.57;;;11.43;;
76053;SDS011;64752;48.870;9.082;2023-06-22T01:02:19;15.05;;;11.48;;
76053;SDS011;64752;48.870;9.082;2023-06-22T01:04:44;14.97;;;12.57;;
76053;SDS011;64752;48.870;9.082;2023-06-22T01:12:40;18.77;;;11.60;;
76053;SDS011;64752;48.870;9.082;2023-06-22T01:15:10;15.60;;;13.30;;
76053;SDS011;64752;48.870;9.082;2023-06-22T01:17:40;16.60;;;11.43;;
76053;SDS011;64752;48.870;9.082;2023-06-22T01:20:08;14.98;;;12.10;;
76053;SDS011;64752;48.870;9.082;2023-06-22T01:25:46;20.67;;;12.48;;
76053;SDS011;64752;48.870;9.082;2023-06-22T01:31:13;16.23;;;12.35;;
76053;SDS011;64752;48.870;9.082;2023-06-22T01:33:42;15.95;;;12.15;;
76053;SDS011;64752;48.870;9.082;2023-06-22T01:36:10;13.25;;;11.38;;
76053;SDS011;64752;48.870;9.082;2023-06-22T01:38:36;15.32;;;11.68;;
76053;SDS011;64752;48.870;9.082;2023-06-22T01:43:28;21.23;;;11.52;;
76053;SDS011;64752;48.870;9.082;2023-06-22T01:45:55;19.17;;;12.07;;
76053;SDS011;64752;48.870;9.082;2023-06-22T01:48:22;18.85;;;12.48;;
76053;SDS011;64752;48.870;9.082;2023-06-22T01:50:48;19.50;;;13.10;;
76053;SDS011;64752;48.870;9.082;2023-06-22T01:53:14;15.03;;;12.57;;
76053;SDS011;64752;48.870;9.082;2023-06-22T01:55:39;15.63;;;12.73;;
76053;SDS011;64752;48.870;9.082;2023-06-22T01:58:04;16.43;;;12.07;;
76053;SDS011;64752;48.870;9.082;2023-06-22T02:00:31;16.80;;;12.67;;
76053;SDS011;64752;48.870;9.082;2023-06-22T02:03:12;16.80;;;11.93;;
76053;SDS011;64752;48.870;9.082;2023-06-22T02:05:45;18.83;;;11.77;;
76053;SDS011;64752;48.870;9.082;2023-06-22T02:08:23;17.73;;;12.07;;
76053;SDS011;64752;48.870;9.082;2023-06-22T02:10:53;15.18;;;11.80;;
76053;SDS011;64752;48.870;9.082;2023-06-22T02:13:20;14.00;;;12.38;;
76053;SDS011;64752;48.870;9.082;2023-06-22T02:15:49;17.20;;;11.98;;
76053;SDS011;64752;48.870;9.082;2023-06-22T02:18:15;15.47;;;13.13;;
76053;SDS011;64752;48.870;9.082;2023-06-22T02:20:40;16.50;;;12.17;;
76053;SDS011;64752;48.870;9.082;2023-06-22T02:23:06;18.13;;;12.57;;
76053;SDS011;64752;48.870;9.082;2023-06-22T02:25:32;16.23;;;12.57;;
76053;SDS011;64752;48.870;9.082;2023-06-22T02:27:58;16.33;;;12.43;;
76053;SDS011;64752;48.870;9.082;2023-06-22T02:30:23;17.53;;;12.27;;
76053;SDS011;64752;48.870;9.082;2023-06-22T02:32:49;16.67;;;12.20;;
76053;SDS011;64752;48.870;9.082;2023-06-22T02:35:16;15.63;;;12.25;;
76053;SDS011;64752;48.870;9.082;2023-06-22T02:37:42;19.37;;;12.80;;
76053;SDS011;64752;48.870;9.082;2023-06-22T02:40:07;16.90;;;13.07;;
76053;SDS011;64752;48.870;9.082;2023-06-22T02:42:34;18.60;;;13.68;;
76053;SDS011;64752;48.870;9.082;2023-06-22T02:45:00;16.23;;;13.27;;
76053;SDS011;64752;48.870;9.082;2023-06-22T02:47:26;20.83;;;13.27;;
76053;SDS011;64752;48.870;9.082;2023-06-22T02:49:51;15.20;;;12.83;;
76053;SDS011;64752;48.870;9.082;2023-06-22T02:52:16;14.83;;;12.83;;
76053;SDS011;64752;48.870;9.082;2023-06-22T02:54:42;18.37;;;13.13;;
76053;SDS011;64752;48.870;9.082;2023-06-22T02:57:07;19.13;;;12.77;;
76053;SDS011;64752;48.870;9.082;2023-06-22T02:59:38;16.27;;;13.02;;
76053;SDS011;64752;48.870;9.082;2023-06-22T03:02:05;15.63;;;13.50;;
76053;SDS011;64752;48.870;9.082;2023-06-22T03:04:31;18.90;;;12.87;;
76053;SDS011;64752;48.870;9.082;2023-06-22T03:06:57;22.00;;;13.60;;
76053;SDS011;64752;48.870;9.082;2023-06-22T03:09:26;17.65;;;12.65;;
76053;SDS011;64752;48.870;9.082;2023-06-22T03:11:53;20.60;;;13.73;;
76053;SDS011;64752;48.870;9.082;2023-06-22T03:14:21;16.98;;;13.68;;
76053;SDS011;64752;48.870;9.082;2023-06-22T03:16:47;19.10;;;14.10;;
76053;SDS011;64752;48.870;9.082;2023-06-22T03:19:12;18.47;;;12.97;;
76053;SDS011;64752;48.870;9.082;2023-06-22T03:21:38;18.70;;;14.17;;
76053;SDS011;64752;48.870;9.082;2023-06-22T03:24:04;18.27;;;14.53;;
76053;SDS011;64752;48.870;9.082;2023-06-22T03:26:30;20.45;;;13.10;;
76053;SDS011;64752;48.870;9.082;2023-06-22T03:28:56;20.50;;;14.13;;
76053;SDS011;64752;48.870;9.082;2023-06-22T03:31:21;18.60;;;14.13;;
76053;SDS011;64752;48.870;9.082;2023-06-22T03:33:48;16.90;;;14.15;;
76053;SDS011;64752;48.870;9.082;2023-06-22T03:36:14;15.95;;;13.52;;
76053;SDS011;64752;48.870;9.082;2023-06-22T03:38:48;26.92;;;13.73;;
76053;SDS011;64752;48.870;9.082;2023-06-22T03:41:14;19.75;;;12.60;;
76053;SDS011;64752;48.870;9.082;2023-06-22T03:43:40;19.53;;;13.83;;
76053;SDS011;64752;48.870;9.082;2023-06-22T03:46:05;26.53;;;14.50;;
76053;SDS011;64752;48.870;9.082;2023-06-22T03:48:31;25.83;;;13.90;;
76053;SDS011;64752;48.870;9.082;2023-06-22T03:50:56;24.23;;;14.73;;
76053;SDS011;64752;48.870;9.082;2023-06-22T04:06:18;18.90;;;14.15;;
76053;SDS011;64752;48.870;9.082;2023-06-22T04:08:45;15.43;;;13.20;;
76053;SDS011;64752;48.870;9.082;2023-06-22T04:11:15;20.13;;;13.15;;
76053;SDS011;64752;48.870;9.082;2023-06-22T04:13:41;19.10;;;12.47;;
76053;SDS011;64752;48.870;9.082;2023-06-22T04:16:06;20.50;;;12.17;;
76053;SDS011;64752;48.870;9.082;2023-06-22T04:18:32;15.73;;;11.23;;
76053;SDS011;64752;48.870;9.082;2023-06-22T04:20:57;18.77;;;11.53;;
76053;SDS011;64752;48.870;9.082;2023-06-22T04:23:22;16.83;;;11.17;;
76053;SDS011;64752;48.870;9.082;2023-06-22T04:25:47;15.93;;;9.87;;
76053;SDS011;64752;48.870;9.082;2023-06-22T04:28:13;13.13;;;9.77;;
76053;SDS011;64752;48.870;9.082;2023-06-22T04:30:38;13.00;;;9.40;;
76053;SDS011;64752;48.870;9.082;2023-06-22T04:33:11;14.07;;;9.60;;
76053;SDS011;64752;48.870;9.082;2023-06-22T04:35:38;15.77;;;10.30;;
76053;SDS011;64752;48.870;9.082;2023-06-22T04:38:06;14.00;;;9.98;;
76053;SDS011;64752;48.870;9.082;2023-06-22T04:40:31;11.70;;;9.07;;
76053;SDS011;64752;48.870;9.082;2023-06-22T04:42:57;15.20;;;9.40;;
76053;SDS011;64752;48.870;9.082;2023-06-22T04:45:22;12.93;;;9.47;;
76053;SDS011;64752;48.870;9.082;2023-06-22T04:47:47;13.97;;;9.10;;
76053;SDS011;64752;48.870;9.082;2023-06-22T04:50:13;12.10;;;8.48;;
76053;SDS011;64752;48.870;9.082;2023-06-22T04:52:40;14.35;;;8.75;;
76053;SDS011;64752;48.870;9.082;2023-06-22T04:55:05;17.53;;;9.30;;
76053;SDS011;64752;48.870;9.082;2023-06-22T04:57:31;12.02;;;9.15;;
76053;SDS011;64752;48.870;9.082;2023-06-22T05:00:00;17.80;;;9.37;;
76053;SDS011;64752;48.870;9.082;2023-06-22T05:02:26;11.77;;;8.55;;
76053;SDS011;64752;48.870;9.082;2023-06-22T05:04:52;11.48;;;7.72;;
76053;SDS011;64752;48.870;9.082;2023-06-22T05:07:21;15.73;;;8.00;;
76053;SDS011;64752;48.870;9.082;2023-06-22T05:09:50;15.85;;;8.68;;
76053;SDS011;64752;48.870;9.082;2023-06-22T05:12:15;11.23;;;8.53;;
76053;SDS011;64752;48.870;9.082;2023-06-22T05:14:43;13.95;;;8.30;;
76053;SDS011;64752;48.870;9.082;2023-06-22T05:17:09;12.90;;;8.23;;
76053;SDS011;64752;48.870;9.082;2023-06-22T05:19:39;13.52;;;9.02;;
76053;SDS011;64752;48.870;9.082;2023-06-22T05:22:10;13.90;;;8.20;;
76053;SDS011;64752;48.870;9.082;2023-06-22T05:24:37;10.80;;;8.20;;
76053;SDS011;64752;48.870;9.082;2023-06-22T05:27:02;13.47;;;8.30;;
76053;SDS011;64752;48.870;9.082;2023-06-22T05:29:28;10.63;;;8.03;;
76053;SDS011;64752;48.870;9.082;2023-06-22T05:31:53;9.80;;;7.70;;
76053;SDS011;64752;48.870;9.082;2023-06-22T05:34:19;14.23;;;9.53;;
76053;SDS011;64752;48.870;9.082;2023-06-22T05:36:44;12.33;;;8.50;;
76053;SDS011;64752;48.870;9.082;2023-06-22T05:39:13;11.87;;;8.13;;
76053;SDS011;64752;48.870;9.082;2023-06-22T05:41:39;12.88;;;8.38;;
76053;SDS011;64752;48.870;9.082;2023-06-22T05:44:05;11.38;;;8.52;;
76053;SDS011;64752;48.870;9.082;2023-06-22T05:46:30;12.93;;;8.30;;
76053;SDS011;64752;48.870;9.082;2023-06-22T05:48:56;9.27;;;7.83;;
76053;SDS011;64752;48.870;9.082;2023-06-22T05:51:21;12.97;;;7.87;;
76053;SDS011;64752;48.870;9.082;2023-06-22T05:53:47;10.87;;;8.00;;
76053;SDS011;64752;48.870;9.082;2023-06-22T05:56:14;12.07;;;8.23;;
76053;SDS011;64752;48.870;9.082;2023-06-22T05:58:43;14.60;;;8.50;;
76053;SDS011;64752;48.870;9.082;2023-06-22T06:01:08;11.00;;;7.93;;
76053;SDS011;64752;48.870;9.082;2023-06-22T06:03:33;12.87;;;8.00;;
76053;SDS011;64752;48.870;9.082;2023-06-22T06:05:59;10.40;;;7.93;;
76053;SDS011;64752;48.870;9.082;2023-06-22T06:08:27;11.45;;;7.78;;
76053;SDS011;64752;48.870;9.082;2023-06-22T06:10:52;11.87;;;7.73;;
76053;SDS011;64752;48.870;9.082;2023-06-22T06:13:20;12.65;;;7.75;;
76053;SDS011;64752;48.870;9.082;2023-06-22T06:15:45;10.97;;;7.97;;
76053;SDS011;64752;48.870;9.082;2023-06-22T06:18:11;10.57;;;7.05;;
76053;SDS011;64752;48.870;9.082;2023-06-22T06:20:36;11.43;;;7.23;;
76053;SDS011;64752;48.870;9.082;2023-06-22T06:23:02;12.60;;;7.60;;
76053;SDS011;64752;48.870;9.082;2023-06-22T06:25:27;12.90;;;7.53;;
76053;SDS011;64752;48.870;9.082;2023-06-22T06:27:52;12.13;;;7.30;;
76053;SDS011;64752;48.870;9.082;2023-06-22T06:30:19;8.60;;;6.97;;
76053;SDS011;64752;48.870;9.082;2023-06-22T06:32:46;13.52;;;7.38;;
76053;SDS011;64752;48.870;9.082;2023-06-22T06:35:12;14.85;;;7.53;;
76053;SDS011;64752;48.870;9.082;2023-06-22T06:37:39;9.10;;;7.40;;
76053;SDS011;64752;48.870;9.082;2023-06-22T06:40:06;9.52;;;7.05;;
76053;SDS011;64752;48.870;9.082;2023-06-22T06:42:35;8.88;;;7.05;;
76053;SDS011;64752;48.870;9.082;2023-06-22T06:45:03;8.25;;;6.28;;
76053;SDS011;64752;48.870;9.082;2023-06-22T06:47:29;12.70;;;6.68;;
76053;SDS011;64752;48.870;9.082;2023-06-22T06:49:54;10.13;;;6.10;;
76053;SDS011;64752;48.870;9.082;2023-06-22T06:52:20;8.57;;;6.40;;
76053;SDS011;64752;48.870;9.082;2023-06-22T06:54:45;11.90;;;6.10;;
76053;SDS011;64752;48.870;9.082;2023-06-22T06:57:10;8.00;;;6.47;;
76053;SDS011;64752;48.870;9.082;2023-06-22T06:59:38;8.70;;;5.53;;
76053;SDS011;64752;48.870;9.082;2023-06-22T07:02:04;10.57;;;6.38;;
76053;SDS011;64752;48.870;9.082;2023-06-22T07:04:30;9.13;;;6.05;;
76053;SDS011;64752;48.870;9.082;2023-06-22T07:06:55;8.67;;;6.23;;
76053;SDS011;64752;48.870;9.082;2023-06-22T07:09:20;11.68;;;6.63;;
76053;SDS011;64752;48.870;9.082;2023-06-22T07:11:46;10.20;;;6.20;;
76053;SDS011;64752;48.870;9.082;2023-06-22T07:14:11;7.70;;;5.90;;
76053;SDS011;64752;48.870;9.082;2023-06-22T07:16:38;12.55;;;6.28;;
76053;SDS011;64752;48.870;9.082;2023-06-22T07:19:03;8.33;;;5.90;;
76053;SDS011;64752;48.870;9.082;2023-06-22T07:21:29;10.80;;;5.87;;
76053;SDS011;64752;48.870;9.082;2023-06-22T07:26:20;8.15;;;5.30;;
76053;SDS011;64752;48.870;9.082;2023-06-22T07:28:45;10.38;;;5.80;;
76053;SDS011;64752;48.870;9.082;2023-06-22T07:33:36;8.63;;;5.60;;
76053;SDS011;64752;48.870;9.082;2023-06-22T07:38:28;6.57;;;5.20;;
76053;SDS011;64752;48.870;9.082;2023-06-22T07:43:19;7.50;;;4.82;;
76053;SDS011;64752;48.870;9.082;2023-06-22T07:48:22;9.82;;;5.40;;
76053;SDS011;64752;48.870;9.082;2023-06-22T07:50:48;6.40;;;4.75;;
76053;SDS011;64752;48.870;9.082;2023-06-22T07:55:39;6.70;;;4.80;;
76053;SDS011;64752;48.870;9.082;2023-06-22T08:00:30;10.10;;;5.10;;
76053;SDS011;64752;48.870;9.082;2023-06-22T08:02:55;11.13;;;4.60;;
76053;SDS011;64752;48.870;9.082;2023-06-22T08:05:21;9.25;;;4.63;;
76053;SDS011;64752;48.870;9.082;2023-06-22T08:07:47;11.25;;;4.80;;
76053;SDS011;64752;48.870;9.082;2023-06-22T08:10:12;8.95;;;4.68;;
76053;SDS011;64752;48.870;9.082;2023-06-22T08:28:27;10.02;;;4.50;;
76053;SDS011;64752;48.870;9.082;2023-06-22T08:40:58;11.18;;;4.88;;
76053;SDS011;64752;48.870;9.082;2023-06-22T08:43:25;8.85;;;5.18;;
76053;SDS011;64752;48.870;9.082;2023-06-22T08:48:15;10.85;;;4.78;;
76053;SDS011;64752;48.870;9.082;2023-06-22T08:53:06;9.43;;;5.03;;
76053;SDS011;64752;48.870;9.082;2023-06-22T08:55:31;8.50;;;4.78;;
76053;SDS011;64752;48.870;9.082;2023-06-22T08:57:59;9.25;;;4.90;;
76053;SDS011;64752;48.870;9.082;2023-06-22T09:00:25;9.23;;;5.30;;
76053;SDS011;64752;48.870;9.082;2023-06-22T09:02:50;9.60;;;5.33;;
76053;SDS011;64752;48.870;9.082;2023-06-22T09:05:16;8.68;;;4.35;;
76053;SDS011;64752;48.870;9.082;2023-06-22T09:10:07;10.80;;;5.00;;
76053;SDS011;64752;48.870;9.082;2023-06-22T09:15:01;8.32;;;4.72;;
76053;SDS011;64752;48.870;9.082;2023-06-22T09:17:27;10.27;;;4.47;;
76053;SDS011;64752;48.870;9.082;2023-06-22T09:19:53;8.93;;;4.78;;
76053;SDS011;64752;48.870;9.082;2023-06-22T09:22:18;8.23;;;4.70;;
76053;SDS011;64752;48.870;9.082;2023-06-22T09:24:44;9.43;;;4.82;;
76053;SDS011;64752;48.870;9.082;2023-06-22T09:27:10;9.07;;;5.03;;
76053;SDS011;64752;48.870;9.082;2023-06-22T09:29:35;7.53;;;4.82;;
76053;SDS011;64752;48.870;9.082;2023-06-22T09:32:00;13.52;;;5.25;;
76053;SDS011;64752;48.870;9.082;2023-06-22T09:34:26;9.02;;;4.68;;
76053;SDS011;64752;48.870;9.082;2023-06-22T09:36:52;10.40;;;4.57;;
76053;SDS011;64752;48.870;9.082;2023-06-22T09:39:17;11.18;;;4.78;;
76053;SDS011;64752;48.870;9.082;2023-06-22T09:41:43;10.60;;;5.05;;
76053;SDS011;64752;48.870;9.082;2023-06-22T09:44:09;11.32;;;4.90;;
76053;SDS011;64752;48.870;9.082;2023-06-22T09:46:34;7.55;;;4.40;;
76053;SDS011;64752;48.870;9.082;2023-06-22T09:49:00;13.80;;;5.20;;
76053;SDS011;64752;48.870;9.082;2023-06-22T09:51:25;9.63;;;5.10;;
76053;SDS011;64752;48.870;9.082;2023-06-22T09:53:51;10.13;;;4.63;;
76053;SDS011;64752;48.870;9.082;2023-06-22T09:56:17;9.05;;;5.20;;
76053;SDS011;64752;48.870;9.082;2023-06-22T09:58:42;7.13;;;4.43;;
76053;SDS011;64752;48.870;9.082;2023-06-22T10:01:09;8.88;;;4.75;;
76053;SDS011;64752;48.870;9.082;2023-06-22T10:03:35;10.27;;;4.63;;
76053;SDS011;64752;48.870;9.082;2023-06-22T10:06:01;8.10;;;4.70;;
76053;SDS011;64752;48.870;9.082;2023-06-22T10:08:27;10.98;;;5.07;;
76053;SDS011;64752;48.870;9.082;2023-06-22T10:10:52;8.93;;;4.75;;
76053;SDS011;64752;48.870;9.082;2023-06-22T10:13:17;10.23;;;4.80;;
76053;SDS011;64752;48.870;9.082;2023-06-22T10:15:44;7.25;;;4.55;;
76053;SDS011;64752;48.870;9.082;2023-06-22T10:18:14;9.18;;;5.22;;
76053;SDS011;64752;48.870;9.082;2023-06-22T10:20:41;10.65;;;5.88;;
76053;SDS011;64752;48.870;9.082;2023-06-22T10:23:06;10.18;;;5.75;;
76053;SDS011;64752;48.870;9.082;2023-06-22T10:25:31;13.35;;;5.70;;
76053;SDS011;64752;48.870;9.082;2023-06-22T10:27:57;12.87;;;5.57;;
76053;SDS011;64752;48.870;9.082;2023-06-22T10:30:22;9.47;;;5.70;;
76053;SDS011;64752;48.870;9.082;2023-06-22T10:32:48;10.63;;;5.55;;
76053;SDS011;64752;48.870;9.082;2023-06-22T10:35:14;9.80;;;5.45;;
76053;SDS011;64752;48.870;9.082;2023-06-22T10:37:41;10.48;;;5.30;;
76053;SDS011;64752;48.870;9.082;2023-06-22T10:40:10;10.15;;;5.47;;
76053;SDS011;64752;48.870;9.082;2023-06-22T10:42:37;11.05;;;4.65;;
76053;SDS011;64752;48.870;9.082;2023-06-22T10:45:02;9.73;;;5.10;;
76053;SDS011;64752;48.870;9.082;2023-06-22T10:47:28;11.75;;;5.00;;
76053;SDS011;64752;48.870;9.082;2023-06-22T10:49:53;9.88;;;5.53;;
76053;SDS011;64752;48.870;9.082;2023-06-22T10:52:18;14.82;;;5.38;;
76053;SDS011;64752;48.870;9.082;2023-06-22T10:54:44;16.35;;;5.47;;
76053;SDS011;64752;48.870;9.082;2023-06-22T10:57:09;10.57;;;5.57;;
76053;SDS011;64752;48.870;9.082;2023-06-22T10:59:34;8.25;;;4.80;;
76053;SDS011;64752;48.870;9.082;2023-06-22T11:02:00;12.80;;;5.15;;
76053;SDS011;64752;48.870;9.082;2023-06-22T11:04:25;11.38;;;4.85;;
76053;SDS011;64752;48.870;9.082;2023-06-22T11:06:51;11.55;;;5.70;;
76053;SDS011;64752;48.870;9.082;2023-06-22T11:09:16;10.25;;;5.20;;
76053;SDS011;64752;48.870;9.082;2023-06-22T11:11:45;9.70;;;4.80;;
76053;SDS011;64752;48.870;9.082;2023-06-22T11:14:11;9.30;;;5.03;;
76053;SDS011;64752;48.870;9.082;2023-06-22T11:16:36;11.65;;;5.05;;
76053;SDS011;64752;48.870;9.082;2023-06-22T11:19:02;10.73;;;4.88;;
76053;SDS011;64752;48.870;9.082;2023-06-22T11:21:29;12.63;;;5.60;;
76053;SDS011;64752;48.870;9.082;2023-06-22T11:23:55;9.88;;;4.82;;
76053;SDS011;64752;48.870;9.082;2023-06-22T11:26:20;15.43;;;5.70;;
76053;SDS011;64752;48.870;9.082;2023-06-22T11:28:46;9.50;;;5.00;;
76053;SDS011;64752;48.870;9.082;2023-06-22T11:31:12;13.48;;;5.65;;
76053;SDS011;64752;48.870;9.082;2023-06-22T11:33:37;10.90;;;5.22;;
76053;SDS011;64752;48.870;9.082;2023-06-22T11:36:02;12.27;;;5.47;;
76053;SDS011;64752;48.870;9.082;2023-06-22T11:38:28;13.82;;;5.30;;
76053;SDS011;64752;48.870;9.082;2023-06-22T11:40:55;12.27;;;5.07;;
76053;SDS011;64752;48.870;9.082;2023-06-22T11:43:21;14.48;;;5.43;;
76053;SDS011;64752;48.870;9.082;2023-06-22T11:45:46;14.75;;;4.88;;
76053;SDS011;64752;48.870;9.082;2023-06-22T11:48:12;16.83;;;5.88;;
76053;SDS011;64752;48.870;9.082;2023-06-22T11:53:02;11.67;;;5.83;;
76053;SDS011;64752;48.870;9.082;2023-06-22T11:57:57;11.65;;;5.65;;
76053;SDS011;64752;48.870;9.082;2023-06-22T12:00:25;12.20;;;5.55;;
76053;SDS011;64752;48.870;9.082;2023-06-22T12:05:21;11.18;;;4.90;;
76053;SDS011;64752;48.870;9.082;2023-06-22T12:07:48;11.40;;;4.93;;
76053;SDS011;64752;48.870;9.082;2023-06-22T12:10:13;13.82;;;5.05;;
76053;SDS011;64752;48.870;9.082;2023-06-22T12:12:39;11.85;;;5.00;;
76053;SDS011;64752;48.870;9.082;2023-06-22T12:15:06;8.52;;;4.57;;
76053;SDS011;64752;48.870;9.082;2023-06-22T12:17:33;14.88;;;5.18;;
76053;SDS011;64752;48.870;9.082;2023-06-22T12:19:59;11.20;;;5.05;;
76053;SDS011;64752;48.870;9.082;2023-06-22T12:24:50;13.23;;;5.20;;
76053;SDS011;64752;48.870;9.082;2023-06-22T12:29:43;12.45;;;5.78;;
76053;SDS011;64752;48.870;9.082;2023-06-22T12:32:10;14.63;;;5.30;;
76053;SDS011;64752;48.870;9.082;2023-06-22T12:34:37;13.20;;;4.63;;
76053;SDS011;64752;48.870;9.082;2023-06-22T12:39:30;10.95;;;5.22;;
76053;SDS011;64752;48.870;9.082;2023-06-22T12:44:21;11.03;;;4.70;;
76053;SDS011;64752;48.870;9.082;2023-06-22T12:49:11;10.17;;;4.97;;
76053;SDS011;64752;48.870;9.082;2023-06-22T12:54:07;8.95;;;5.00;;
76053;SDS011;64752;48.870;9.082;2023-06-22T12:56:32;15.90;;;5.38;;
76053;SDS011;64752;48.870;9.082;2023-06-22T12:58:58;13.48;;;4.80;;
76053;SDS011;64752;48.870;9.082;2023-06-22T13:01:26;15.32;;;5.80;;
76053;SDS011;64752;48.870;9.082;2023-06-22T13:03:58;12.20;;;5.57;;
76053;SDS011;64752;48.870;9.082;2023-06-22T13:06:24;12.63;;;5.15;;
76053;SDS011;64752;48.870;9.082;2023-06-22T13:11:15;13.43;;;5.90;;
76053;SDS011;64752;48.870;9.082;2023-06-22T13:16:06;15.17;;;5.53;;
76053;SDS011;64752;48.870;9.082;2023-06-22T13:18:32;15.95;;;6.25;;
76053;SDS011;64752;48.870;9.082;2023-06-22T13:21:00;16.15;;;5.82;;
76053;SDS011;64752;48.870;9.082;2023-06-22T13:23:26;17.90;;;5.80;;
76053;SDS011;64752;48.870;9.082;2023-06-22T13:25:51;14.63;;;6.03;;
76053;SDS011;64752;48.870;9.082;2023-06-22T13:28:17;14.63;;;5.40;;
76053;SDS011;64752;48.870;9.082;2023-06-22T13:30:42;10.27;;;5.32;;
76053;SDS011;64752;48.870;9.082;2023-06-22T13:33:10;12.35;;;5.53;;
76053;SDS011;64752;48.870;9.082;2023-06-22T13:35:36;8.90;;;5.55;;
76053;SDS011;64752;48.870;9.082;2023-06-22T13:38:01;14.75;;;5.65;;
76053;SDS011;64752;48.870;9.082;2023-06-22T13:42:52;15.47;;;6.03;;
76053;SDS011;64752;48.870;9.082;2023-06-22T13:47:44;13.18;;;5.78;;
76053;SDS011;64752;48.870;9.082;2023-06-22T13:50:09;10.18;;;5.28;;
76053;SDS011;64752;48.870;9.082;2023-06-22T13:52:35;13.80;;;5.38;;
76053;SDS011;64752;48.870;9.082;2023-06-22T13:55:03;11.68;;;5.40;;
76053;SDS011;64752;48.870;9.082;2023-06-22T13:57:30;14.60;;;5.60;;
76053;SDS011;64752;48.870;9.082;2023-06-22T13:59:55;15.43;;;5.47;;
76053;SDS011;64752;48.870;9.082;2023-06-22T14:02:23;14.35;;;5.35;;
76053;SDS011;64752;48.870;9.082;2023-06-22T14:04:48;17.85;;;6.03;;
76053;SDS011;64752;48.870;9.082;2023-06-22T14:07:13;14.88;;;5.90;;
76053;SDS011;64752;48.870;9.082;2023-06-22T14:09:39;16.63;;;5.88;;
76053;SDS011;64752;48.870;9.082;2023-06-22T14:12:04;14.10;;;5.60;;
76053;SDS011;64752;48.870;9.082;2023-06-22T14:14:33;13.15;;;5.45;;
76053;SDS011;64752;48.870;9.082;2023-06-22T14:19:24;14.32;;;5.93;;
76053;SDS011;64752;48.870;9.082;2023-06-22T14:24:15;14.65;;;5.80;;
76053;SDS011;64752;48.870;9.082;2023-06-22T14:29:09;12.83;;;5.80;;
76053;SDS011;64752;48.870;9.082;2023-06-22T14:31:34;11.27;;;5.57;;
76053;SDS011;64752;48.870;9.082;2023-06-22T14:36:27;13.27;;;5.80;;
76053;SDS011;64752;48.870;9.082;2023-06-22T14:41:18;11.67;;;4.57;;
76053;SDS011;64752;48.870;9.082;2023-06-22T14:43:47;13.70;;;4.68;;
76053;SDS011;64752;48.870;9.082;2023-06-22T14:46:14;11.35;;;3.90;;
76053;SDS011;64752;48.870;9.082;2023-06-22T14:48:40;13.30;;;4.18;;
76053;SDS011;64752;48.870;9.082;2023-06-22T14:51:07;10.00;;;3.50;;
76053;SDS011;64752;48.870;9.082;2023-06-22T14:53:33;9.55;;;3.40;;
76053;SDS011;64752;48.870;9.082;2023-06-22T14:58:26;15.15;;;3.25;;
76053;SDS011;64752;48.870;9.082;2023-06-22T15:03:17;9.80;;;3.47;;
76053;SDS011;64752;48.870;9.082;2023-06-22T15:05:46;16.13;;;3.97;;
76053;SDS011;64752;48.870;9.082;2023-06-22T15:08:12;16.98;;;4.15;;
76053;SDS011;64752;48.870;9.082;2023-06-22T15:10:37;12.35;;;3.72;;
76053;SDS011;64752;48.870;9.082;2023-06-22T15:15:28;12.30;;;3.93;;
76053;SDS011;64752;48.870;9.082;2023-06-22T15:20:18;13.97;;;3.87;;
76053;SDS011;64752;48.870;9.082;2023-06-22T15:25:09;16.13;;;4.10;;
76053;SDS011;64752;48.870;9.082;2023-06-22T15:27:35;13.20;;;3.90;;
76053;SDS011;64752;48.870;9.082;2023-06-22T15:30:01;9.57;;;3.07;;
76053;SDS011;64752;48.870;9.082;2023-06-22T15:32:28;13.52;;;3.83;;
76053;SDS011;64752;48.870;9.082;2023-06-22T15:34:53;13.55;;;3.75;;
76053;SDS011;64752;48.870;9.082;2023-06-22T15:37:19;12.80;;;3.77;;
76053;SDS011;64752;48.870;9.082;2023-06-22T15:42:10;12.75;;;3.85;;
76053;SDS011;64752;48.870;9.082;2023-06-22T15:44:35;16.02;;;3.80;;
76053;SDS011;64752;48.870;9.082;2023-06-22T15:47:01;13.40;;;3.50;;
76053;SDS011;64752;48.870;9.082;2023-06-22T15:49:26;13.90;;;3.75;;
76053;SDS011;64752;48.870;9.082;2023-06-22T15:54:17;14.63;;;3.53;;
76053;SDS011;64752;48.870;9.082;2023-06-22T15:56:43;9.75;;;3.45;;
76053;SDS011;64752;48.870;9.082;2023-06-22T15:59:08;12.23;;;3.70;;
76053;SDS011;64752;48.870;9.082;2023-06-22T16:01:34;16.40;;;3.87;;
76053;SDS011;64752;48.870;9.082;2023-06-22T16:03:59;12.15;;;4.05;;
76053;SDS011;64752;48.870;9.082;2023-06-22T16:06:25;15.20;;;4.00;;
76053;SDS011;64752;48.870;9.082;2023-06-22T16:08:50;13.80;;;4.67;;
76053;SDS011;64752;48.870;9.082;2023-06-22T16:11:16;12.82;;;3.70;;
76053;SDS011;64752;48.870;9.082;2023-06-22T16:13:41;16.67;;;4.68;;
76053;SDS011;64752;48.870;9.082;2023-06-22T16:16:07;10.27;;;4.03;;
76053;SDS011;64752;48.870;9.082;2023-06-22T16:18:32;12.35;;;3.97;;
76053;SDS011;64752;48.870;9.082;2023-06-22T16:20:57;11.53;;;4.33;;
76053;SDS011;64752;48.870;9.082;2023-06-22T16:23:23;12.03;;;3.90;;
76053;SDS011;64752;48.870;9.082;2023-06-22T16:25:48;9.90;;;3.72;;
76053;SDS011;64752;48.870;9.082;2023-06-22T16:28:14;8.50;;;3.67;;
76053;SDS011;64752;48.870;9.082;2023-06-22T16:30:39;12.55;;;3.85;;
76053;SDS011;64752;48.870;9.082;2023-06-22T16:33:06;11.77;;;3.30;;
76053;SDS011;64752;48.870;9.082;2023-06-22T16:35:31;13.00;;;4.03;;
76053;SDS011;64752;48.870;9.082;2023-06-22T16:37:58;11.00;;;3.45;;
76053;SDS011;64752;48.870;9.082;2023-06-22T16:40:24;18.95;;;4.00;;
76053;SDS011;64752;48.870;9.082;2023-06-22T16:42:50;12.27;;;3.50;;
76053;SDS011;64752;48.870;9.082;2023-06-22T16:45:17;11.77;;;3.35;;
76053;SDS011;64752;48.870;9.082;2023-06-22T16:47:45;11.27;;;3.30;;